sensor_id;sensor_type;location;lat;lon;timestamp;P1;durP1;ratioP1;P2;durP2;ratioP2
11988;SDS011;6054;50.966;7.094;2023-04-15T00:01:40;2.80;;;1.70;;
11988;SDS011;6054;50.966;7.094;2023-04-15T00:04:07;2.85;;;1.75;;
11988;SDS011;6054;50.966;7.094;2023-04-15T00:06:35;4.03;;;2.10;;
11988;SDS011;6054;50.966;7.094;2023-04-15T00:09:04;3.53;;;1.98;;
11988;SDS011;6054;50.966;7.094;2023-04-15T00:11:31;2.70;;;1.70;;
11988;SDS011;6054;50.966;7.094;2023-04-15T00:13:58;6.22;;;2.00;;
11988;SDS011;6054;50.966;7.094;2023-04-15T00:16:25;4.35;;;1.77;;
11988;SDS011;6054;50.966;7.094;2023-04-15T00:18:52;2.88;;;1.70;;
11988;SDS011;6054;50.966;7.094;2023-04-15T00:21:19;4.43;;;1.85;;
11988;SDS011;6054;50.966;7.094;2023-04-15T00:23:45;3.85;;;1.90;;
11988;SDS011;6054;50.966;7.094;2023-04-15T00:26:17;3.65;;;1.77;;
11988;SDS011;6054;50.966;7.094;2023-04-15T00:28:44;5.32;;;1.55;;
11988;SDS011;6054;50.966;7.094;2023-04-15T00:31:11;4.25;;;2.00;;
11988;SDS011;6054;50.966;7.094;2023-04-15T00:33:38;2.80;;;1.85;;
11988;SDS011;6054;50.966;7.094;2023-04-15T00:36:05;5.20;;;2.10;;
11988;SDS011;6054;50.966;7.094;2023-04-15T00:38:33;3.40;;;2.00;;
11988;SDS011;6054;50.966;7.094;2023-04-15T00:41:01;4.13;;;2.25;;
11988;SDS011;6054;50.966;7.094;2023-04-15T00:43:30;4.28;;;2.00;;
11988;SDS011;6054;50.966;7.094;2023-04-15T00:45:56;3.95;;;2.35;;
11988;SDS011;6054;50.966;7.094;2023-04-15T00:48:24;3.42;;;1.90;;
11988;SDS011;6054;50.966;7.094;2023-04-15T00:50:52;3.13;;;1.80;;
11988;SDS011;6054;50.966;7.094;2023-04-15T00:53:18;2.50;;;1.83;;
11988;SDS011;6054;50.966;7.094;2023-04-15T00:55:45;4.60;;;2.08;;
11988;SDS011;6054;50.966;7.094;2023-04-15T00:58:12;3.75;;;1.80;;
11988;SDS011;6054;50.966;7.094;2023-04-15T01:00:40;1.75;;;1.65;;
11988;SDS011;6054;50.966;7.094;2023-04-15T01:03:07;3.53;;;1.75;;
11988;SDS011;6054;50.966;7.094;2023-04-15T01:05:35;3.38;;;1.80;;
11988;SDS011;6054;50.966;7.094;2023-04-15T01:08:03;3.50;;;1.90;;
11988;SDS011;6054;50.966;7.094;2023-04-15T01:10:30;2.42;;;1.88;;
11988;SDS011;6054;50.966;7.094;2023-04-15T01:12:57;3.63;;;2.03;;
11988;SDS011;6054;50.966;7.094;2023-04-15T01:15:24;2.30;;;1.88;;
11988;SDS011;6054;50.966;7.094;2023-04-15T01:17:52;3.08;;;1.77;;
11988;SDS011;6054;50.966;7.094;2023-04-15T01:20:19;4.90;;;1.95;;
11988;SDS011;6054;50.966;7.094;2023-04-15T01:22:47;3.78;;;1.83;;
11988;SDS011;6054;50.966;7.094;2023-04-15T01:25:16;4.32;;;1.80;;
11988;SDS011;6054;50.966;7.094;2023-04-15T01:27:45;3.40;;;2.03;;
11988;SDS011;6054;50.966;7.094;2023-04-15T01:30:12;2.15;;;1.90;;
11988;SDS011;6054;50.966;7.094;2023-04-15T01:32:39;3.28;;;2.10;;
11988;SDS011;6054;50.966;7.094;2023-04-15T01:35:06;5.13;;;2.05;;
11988;SDS011;6054;50.966;7.094;2023-04-15T01:37:33;2.90;;;1.73;;
11988;SDS011;6054;50.966;7.094;2023-04-15T01:40:01;5.18;;;2.00;;
11988;SDS011;6054;50.966;7.094;2023-04-15T01:42:28;4.53;;;3.00;;
11988;SDS011;6054;50.966;7.094;2023-04-15T01:44:56;5.60;;;1.95;;
11988;SDS011;6054;50.966;7.094;2023-04-15T01:47:23;4.75;;;1.80;;
11988;SDS011;6054;50.966;7.094;2023-04-15T01:49:51;5.05;;;2.05;;
11988;SDS011;6054;50.966;7.094;2023-04-15T01:52:17;2.10;;;1.75;;
11988;SDS011;6054;50.966;7.094;2023-04-15T01:54:44;3.33;;;1.80;;
11988;SDS011;6054;50.966;7.094;2023-04-15T01:57:11;4.38;;;2.42;;
11988;SDS011;6054;50.966;7.094;2023-04-15T01:59:38;4.00;;;2.00;;
11988;SDS011;6054;50.966;7.094;2023-04-15T02:02:06;3.15;;;2.20;;
11988;SDS011;6054;50.966;7.094;2023-04-15T02:04:33;3.47;;;1.92;;
11988;SDS011;6054;50.966;7.094;2023-04-15T02:07:00;7.30;;;2.20;;
11988;SDS011;6054;50.966;7.094;2023-04-15T02:09:27;3.92;;;2.00;;
11988;SDS011;6054;50.966;7.094;2023-04-15T02:11:54;3.03;;;2.00;;
11988;SDS011;6054;50.966;7.094;2023-04-15T02:14:20;5.28;;;2.08;;
11988;SDS011;6054;50.966;7.094;2023-04-15T02:16:47;3.03;;;1.98;;
11988;SDS011;6054;50.966;7.094;2023-04-15T02:19:15;7.53;;;2.40;;
11988;SDS011;6054;50.966;7.094;2023-04-15T02:21:42;2.70;;;2.08;;
11988;SDS011;6054;50.966;7.094;2023-04-15T02:24:09;2.88;;;1.80;;
11988;SDS011;6054;50.966;7.094;2023-04-15T02:26:36;4.22;;;2.08;;
11988;SDS011;6054;50.966;7.094;2023-04-15T02:29:03;3.97;;;2.30;;
11988;SDS011;6054;50.966;7.094;2023-04-15T02:31:30;3.40;;;2.05;;
11988;SDS011;6054;50.966;7.094;2023-04-15T02:34:00;2.15;;;1.95;;
11988;SDS011;6054;50.966;7.094;2023-04-15T02:36:29;6.20;;;2.00;;
11988;SDS011;6054;50.966;7.094;2023-04-15T02:38:56;5.57;;;2.10;;
11988;SDS011;6054;50.966;7.094;2023-04-15T02:41:23;1.83;;;1.67;;
11988;SDS011;6054;50.966;7.094;2023-04-15T02:43:52;3.92;;;2.38;;
11988;SDS011;6054;50.966;7.094;2023-04-15T02:46:19;3.70;;;2.10;;
11988;SDS011;6054;50.966;7.094;2023-04-15T02:48:46;3.08;;;2.13;;
11988;SDS011;6054;50.966;7.094;2023-04-15T02:51:13;5.30;;;2.00;;
11988;SDS011;6054;50.966;7.094;2023-04-15T02:53:42;4.60;;;1.90;;
11988;SDS011;6054;50.966;7.094;2023-04-15T02:56:09;4.80;;;2.00;;
11988;SDS011;6054;50.966;7.094;2023-04-15T02:58:36;3.20;;;1.98;;
11988;SDS011;6054;50.966;7.094;2023-04-15T03:01:04;7.63;;;2.05;;
11988;SDS011;6054;50.966;7.094;2023-04-15T03:03:31;2.10;;;1.98;;
11988;SDS011;6054;50.966;7.094;2023-04-15T03:05:58;7.10;;;2.05;;
11988;SDS011;6054;50.966;7.094;2023-04-15T03:08:24;2.65;;;2.10;;
11988;SDS011;6054;50.966;7.094;2023-04-15T03:10:53;4.85;;;2.22;;
11988;SDS011;6054;50.966;7.094;2023-04-15T03:13:20;3.58;;;2.50;;
11988;SDS011;6054;50.966;7.094;2023-04-15T03:15:48;7.63;;;2.28;;
11988;SDS011;6054;50.966;7.094;2023-04-15T03:18:15;3.13;;;2.00;;
11988;SDS011;6054;50.966;7.094;2023-04-15T03:20:41;4.43;;;2.17;;
11988;SDS011;6054;50.966;7.094;2023-04-15T03:23:08;4.63;;;1.98;;
11988;SDS011;6054;50.966;7.094;2023-04-15T03:25:35;5.15;;;2.38;;
11988;SDS011;6054;50.966;7.094;2023-04-15T03:28:03;6.78;;;3.03;;
11988;SDS011;6054;50.966;7.094;2023-04-15T03:30:31;3.50;;;2.90;;
11988;SDS011;6054;50.966;7.094;2023-04-15T03:32:57;8.25;;;2.92;;
11988;SDS011;6054;50.966;7.094;2023-04-15T03:35:24;5.35;;;2.70;;
11988;SDS011;6054;50.966;7.094;2023-04-15T03:37:51;2.90;;;2.13;;
11988;SDS011;6054;50.966;7.094;2023-04-15T03:40:18;5.55;;;2.63;;
11988;SDS011;6054;50.966;7.094;2023-04-15T03:42:46;3.70;;;2.08;;
11988;SDS011;6054;50.966;7.094;2023-04-15T03:45:14;4.45;;;2.65;;
11988;SDS011;6054;50.966;7.094;2023-04-15T03:47:41;4.18;;;2.83;;
11988;SDS011;6054;50.966;7.094;2023-04-15T03:50:08;4.72;;;2.42;;
11988;SDS011;6054;50.966;7.094;2023-04-15T03:52:35;4.38;;;2.80;;
11988;SDS011;6054;50.966;7.094;2023-04-15T03:55:02;3.80;;;2.40;;
11988;SDS011;6054;50.966;7.094;2023-04-15T03:57:29;3.38;;;2.30;;
11988;SDS011;6054;50.966;7.094;2023-04-15T03:59:56;4.15;;;2.45;;
11988;SDS011;6054;50.966;7.094;2023-04-15T04:02:24;3.05;;;2.60;;
11988;SDS011;6054;50.966;7.094;2023-04-15T04:04:52;6.35;;;2.95;;
11988;SDS011;6054;50.966;7.094;2023-04-15T04:07:18;4.15;;;2.88;;
11988;SDS011;6054;50.966;7.094;2023-04-15T04:09:45;5.85;;;3.20;;
11988;SDS011;6054;50.966;7.094;2023-04-15T04:12:12;8.13;;;3.17;;
11988;SDS011;6054;50.966;7.094;2023-04-15T04:14:38;9.20;;;3.25;;
11988;SDS011;6054;50.966;7.094;2023-04-15T04:17:05;6.55;;;3.00;;
11988;SDS011;6054;50.966;7.094;2023-04-15T04:19:33;7.13;;;3.33;;
11988;SDS011;6054;50.966;7.094;2023-04-15T04:22:00;4.65;;;2.85;;
11988;SDS011;6054;50.966;7.094;2023-04-15T04:24:27;4.55;;;2.70;;
11988;SDS011;6054;50.966;7.094;2023-04-15T04:26:54;4.15;;;2.90;;
11988;SDS011;6054;50.966;7.094;2023-04-15T04:29:21;3.22;;;2.80;;
11988;SDS011;6054;50.966;7.094;2023-04-15T04:31:48;5.32;;;3.50;;
11988;SDS011;6054;50.966;7.094;2023-04-15T04:34:15;6.55;;;4.00;;
11988;SDS011;6054;50.966;7.094;2023-04-15T04:36:43;3.17;;;2.88;;
11988;SDS011;6054;50.966;7.094;2023-04-15T04:39:10;3.40;;;3.00;;
11988;SDS011;6054;50.966;7.094;2023-04-15T04:41:36;4.95;;;3.03;;
11988;SDS011;6054;50.966;7.094;2023-04-15T04:44:03;5.30;;;3.30;;
11988;SDS011;6054;50.966;7.094;2023-04-15T04:46:30;4.43;;;3.03;;
11988;SDS011;6054;50.966;7.094;2023-04-15T04:48:56;6.05;;;3.17;;
11988;SDS011;6054;50.966;7.094;2023-04-15T04:51:23;5.30;;;3.15;;
11988;SDS011;6054;50.966;7.094;2023-04-15T04:53:51;4.63;;;3.50;;
11988;SDS011;6054;50.966;7.094;2023-04-15T04:56:18;6.13;;;3.33;;
11988;SDS011;6054;50.966;7.094;2023-04-15T04:58:45;7.10;;;3.60;;
11988;SDS011;6054;50.966;7.094;2023-04-15T05:01:12;6.90;;;3.67;;
11988;SDS011;6054;50.966;7.094;2023-04-15T05:03:39;5.37;;;3.03;;
11988;SDS011;6054;50.966;7.094;2023-04-15T05:06:05;3.63;;;3.20;;
11988;SDS011;6054;50.966;7.094;2023-04-15T05:08:32;5.60;;;4.10;;
11988;SDS011;6054;50.966;7.094;2023-04-15T05:11:01;5.23;;;4.10;;
11988;SDS011;6054;50.966;7.094;2023-04-15T05:13:28;5.47;;;3.53;;
11988;SDS011;6054;50.966;7.094;2023-04-15T05:15:55;5.03;;;3.88;;
11988;SDS011;6054;50.966;7.094;2023-04-15T05:18:22;6.32;;;4.68;;
11988;SDS011;6054;50.966;7.094;2023-04-15T05:20:48;6.90;;;3.95;;
11988;SDS011;6054;50.966;7.094;2023-04-15T05:23:15;6.97;;;3.53;;
11988;SDS011;6054;50.966;7.094;2023-04-15T05:25:42;3.60;;;3.00;;
11988;SDS011;6054;50.966;7.094;2023-04-15T05:28:10;5.22;;;2.50;;
11988;SDS011;6054;50.966;7.094;2023-04-15T05:30:37;5.20;;;3.10;;
11988;SDS011;6054;50.966;7.094;2023-04-15T05:33:04;5.28;;;2.58;;
11988;SDS011;6054;50.966;7.094;2023-04-15T05:35:31;4.32;;;3.03;;
11988;SDS011;6054;50.966;7.094;2023-04-15T05:37:58;6.03;;;3.30;;
11988;SDS011;6054;50.966;7.094;2023-04-15T05:40:25;5.95;;;3.38;;
11988;SDS011;6054;50.966;7.094;2023-04-15T05:42:52;5.43;;;3.55;;
11988;SDS011;6054;50.966;7.094;2023-04-15T05:45:20;6.47;;;3.05;;
11988;SDS011;6054;50.966;7.094;2023-04-15T05:47:46;5.85;;;3.50;;
11988;SDS011;6054;50.966;7.094;2023-04-15T05:50:14;7.10;;;3.65;;
11988;SDS011;6054;50.966;7.094;2023-04-15T05:52:41;3.92;;;2.88;;
11988;SDS011;6054;50.966;7.094;2023-04-15T05:55:08;5.57;;;3.22;;
11988;SDS011;6054;50.966;7.094;2023-04-15T05:57:35;6.95;;;3.10;;
11988;SDS011;6054;50.966;7.094;2023-04-15T06:00:02;4.15;;;3.00;;
11988;SDS011;6054;50.966;7.094;2023-04-15T06:02:31;5.22;;;2.63;;
11988;SDS011;6054;50.966;7.094;2023-04-15T06:04:58;5.47;;;3.00;;
11988;SDS011;6054;50.966;7.094;2023-04-15T06:07:25;3.53;;;2.88;;
11988;SDS011;6054;50.966;7.094;2023-04-15T06:09:51;3.35;;;2.78;;
11988;SDS011;6054;50.966;7.094;2023-04-15T06:12:18;3.97;;;2.60;;
11988;SDS011;6054;50.966;7.094;2023-04-15T06:14:45;6.07;;;3.22;;
11988;SDS011;6054;50.966;7.094;2023-04-15T06:17:12;5.90;;;3.92;;
11988;SDS011;6054;50.966;7.094;2023-04-15T06:19:40;4.18;;;3.72;;
11988;SDS011;6054;50.966;7.094;2023-04-15T06:22:07;5.55;;;3.85;;
11988;SDS011;6054;50.966;7.094;2023-04-15T06:24:34;5.88;;;3.90;;
11988;SDS011;6054;50.966;7.094;2023-04-15T06:27:01;5.88;;;3.45;;
11988;SDS011;6054;50.966;7.094;2023-04-15T06:29:27;5.93;;;3.90;;
11988;SDS011;6054;50.966;7.094;2023-04-15T06:31:54;7.18;;;5.45;;
11988;SDS011;6054;50.966;7.094;2023-04-15T06:34:21;7.72;;;4.35;;
11988;SDS011;6054;50.966;7.094;2023-04-15T06:36:49;5.90;;;4.47;;
11988;SDS011;6054;50.966;7.094;2023-04-15T06:39:16;5.93;;;4.40;;
11988;SDS011;6054;50.966;7.094;2023-04-15T06:41:43;6.45;;;4.10;;
11988;SDS011;6054;50.966;7.094;2023-04-15T06:44:10;4.90;;;3.92;;
11988;SDS011;6054;50.966;7.094;2023-04-15T06:46:36;7.03;;;3.90;;
11988;SDS011;6054;50.966;7.094;2023-04-15T06:49:03;4.45;;;3.63;;
11988;SDS011;6054;50.966;7.094;2023-04-15T06:51:30;8.00;;;4.60;;
11988;SDS011;6054;50.966;7.094;2023-04-15T06:53:58;4.35;;;3.58;;
11988;SDS011;6054;50.966;7.094;2023-04-15T06:56:25;4.32;;;3.40;;
11988;SDS011;6054;50.966;7.094;2023-04-15T06:58:52;7.28;;;3.90;;
11988;SDS011;6054;50.966;7.094;2023-04-15T07:01:19;5.93;;;3.70;;
11988;SDS011;6054;50.966;7.094;2023-04-15T07:03:46;5.45;;;3.63;;
11988;SDS011;6054;50.966;7.094;2023-04-15T07:06:13;7.75;;;4.25;;
11988;SDS011;6054;50.966;7.094;2023-04-15T07:08:39;4.05;;;3.70;;
11988;SDS011;6054;50.966;7.094;2023-04-15T07:11:08;8.48;;;3.72;;
11988;SDS011;6054;50.966;7.094;2023-04-15T07:13:34;6.15;;;3.70;;
11988;SDS011;6054;50.966;7.094;2023-04-15T07:16:01;7.55;;;3.97;;
11988;SDS011;6054;50.966;7.094;2023-04-15T07:18:28;5.53;;;3.78;;
11988;SDS011;6054;50.966;7.094;2023-04-15T07:20:55;4.65;;;3.55;;
11988;SDS011;6054;50.966;7.094;2023-04-15T07:23:22;4.18;;;3.72;;
11988;SDS011;6054;50.966;7.094;2023-04-15T07:25:49;4.40;;;3.40;;
11988;SDS011;6054;50.966;7.094;2023-04-15T07:28:17;3.97;;;3.55;;
11988;SDS011;6054;50.966;7.094;2023-04-15T07:30:44;4.38;;;3.50;;
11988;SDS011;6054;50.966;7.094;2023-04-15T07:33:11;3.72;;;3.42;;
11988;SDS011;6054;50.966;7.094;2023-04-15T07:35:37;4.13;;;3.70;;
11988;SDS011;6054;50.966;7.094;2023-04-15T07:38:04;3.40;;;3.08;;
11988;SDS011;6054;50.966;7.094;2023-04-15T07:40:31;3.67;;;3.22;;
11988;SDS011;6054;50.966;7.094;2023-04-15T07:42:58;4.10;;;3.47;;
11988;SDS011;6054;50.966;7.094;2023-04-15T07:45:26;3.67;;;3.20;;
11988;SDS011;6054;50.966;7.094;2023-04-15T07:47:53;3.45;;;3.17;;
11988;SDS011;6054;50.966;7.094;2023-04-15T07:50:20;3.63;;;3.33;;
11988;SDS011;6054;50.966;7.094;2023-04-15T07:52:47;4.03;;;3.00;;
11988;SDS011;6054;50.966;7.094;2023-04-15T07:55:15;7.05;;;3.15;;
11988;SDS011;6054;50.966;7.094;2023-04-15T07:57:44;3.60;;;2.55;;
11988;SDS011;6054;50.966;7.094;2023-04-15T08:00:11;2.97;;;2.75;;
11988;SDS011;6054;50.966;7.094;2023-04-15T08:02:45;2.15;;;2.05;;
11988;SDS011;6054;50.966;7.094;2023-04-15T08:05:13;2.35;;;2.15;;
11988;SDS011;6054;50.966;7.094;2023-04-15T08:07:40;2.17;;;1.92;;
11988;SDS011;6054;50.966;7.094;2023-04-15T08:10:07;4.55;;;1.80;;
11988;SDS011;6054;50.966;7.094;2023-04-15T08:12:34;2.20;;;1.50;;
11988;SDS011;6054;50.966;7.094;2023-04-15T08:15:02;3.35;;;1.83;;
11988;SDS011;6054;50.966;7.094;2023-04-15T08:17:29;1.77;;;1.67;;
11988;SDS011;6054;50.966;7.094;2023-04-15T08:19:57;1.52;;;1.40;;
11988;SDS011;6054;50.966;7.094;2023-04-15T08:22:24;3.10;;;1.75;;
11988;SDS011;6054;50.966;7.094;2023-04-15T08:24:51;2.58;;;2.00;;
11988;SDS011;6054;50.966;7.094;2023-04-15T08:27:18;2.15;;;1.70;;
11988;SDS011;6054;50.966;7.094;2023-04-15T08:29:44;1.83;;;1.73;;
11988;SDS011;6054;50.966;7.094;2023-04-15T08:32:11;1.90;;;1.50;;
11988;SDS011;6054;50.966;7.094;2023-04-15T08:34:38;2.33;;;1.63;;
11988;SDS011;6054;50.966;7.094;2023-04-15T08:37:07;4.07;;;2.03;;
11988;SDS011;6054;50.966;7.094;2023-04-15T08:39:34;2.00;;;1.20;;
11988;SDS011;6054;50.966;7.094;2023-04-15T08:42:01;3.80;;;1.70;;
11988;SDS011;6054;50.966;7.094;2023-04-15T08:44:32;3.90;;;2.13;;
11988;SDS011;6054;50.966;7.094;2023-04-15T08:46:59;2.08;;;1.90;;
11988;SDS011;6054;50.966;7.094;2023-04-15T08:49:27;2.20;;;2.00;;
11988;SDS011;6054;50.966;7.094;2023-04-15T08:51:54;3.03;;;1.90;;
11988;SDS011;6054;50.966;7.094;2023-04-15T08:54:25;1.70;;;1.60;;
11988;SDS011;6054;50.966;7.094;2023-04-15T08:56:52;2.97;;;1.75;;
11988;SDS011;6054;50.966;7.094;2023-04-15T08:59:19;2.22;;;1.60;;
11988;SDS011;6054;50.966;7.094;2023-04-15T09:01:47;2.67;;;1.70;;
11988;SDS011;6054;50.966;7.094;2023-04-15T09:04:14;1.38;;;1.27;;
11988;SDS011;6054;50.966;7.094;2023-04-15T09:06:42;1.60;;;1.50;;
11988;SDS011;6054;50.966;7.094;2023-04-15T09:09:09;2.20;;;1.42;;
11988;SDS011;6054;50.966;7.094;2023-04-15T09:11:39;1.80;;;1.42;;
11988;SDS011;6054;50.966;7.094;2023-04-15T09:14:06;1.35;;;1.27;;
11988;SDS011;6054;50.966;7.094;2023-04-15T09:19:21;1.98;;;1.63;;
11988;SDS011;6054;50.966;7.094;2023-04-15T09:21:49;1.50;;;1.40;;
11988;SDS011;6054;50.966;7.094;2023-04-15T09:24:17;1.90;;;1.80;;
11988;SDS011;6054;50.966;7.094;2023-04-15T09:26:45;1.65;;;1.55;;
11988;SDS011;6054;50.966;7.094;2023-04-15T09:29:12;1.50;;;1.40;;
11988;SDS011;6054;50.966;7.094;2023-04-15T09:31:40;1.42;;;1.33;;
11988;SDS011;6054;50.966;7.094;2023-04-15T09:34:07;1.55;;;1.45;;
11988;SDS011;6054;50.966;7.094;2023-04-15T09:36:39;1.90;;;1.80;;
11988;SDS011;6054;50.966;7.094;2023-04-15T09:39:17;2.00;;;1.70;;
11988;SDS011;6054;50.966;7.094;2023-04-15T09:41:46;1.33;;;1.33;;
11988;SDS011;6054;50.966;7.094;2023-04-15T09:44:21;2.20;;;1.50;;
11988;SDS011;6054;50.966;7.094;2023-04-15T09:46:48;1.60;;;1.50;;
11988;SDS011;6054;50.966;7.094;2023-04-15T09:49:15;1.52;;;1.42;;
11988;SDS011;6054;50.966;7.094;2023-04-15T09:51:42;1.90;;;1.70;;
11988;SDS011;6054;50.966;7.094;2023-04-15T09:54:09;1.73;;;1.63;;
11988;SDS011;6054;50.966;7.094;2023-04-15T09:56:36;1.52;;;1.42;;
11988;SDS011;6054;50.966;7.094;2023-04-15T09:59:07;2.80;;;1.30;;
11988;SDS011;6054;50.966;7.094;2023-04-15T10:01:34;1.27;;;1.27;;
11988;SDS011;6054;50.966;7.094;2023-04-15T10:04:02;1.30;;;1.20;;
11988;SDS011;6054;50.966;7.094;2023-04-15T10:06:29;1.33;;;1.15;;
11988;SDS011;6054;50.966;7.094;2023-04-15T10:08:57;2.92;;;1.60;;
11988;SDS011;6054;50.966;7.094;2023-04-15T10:11:25;1.70;;;1.60;;
11988;SDS011;6054;50.966;7.094;2023-04-15T10:13:55;1.40;;;1.30;;
11988;SDS011;6054;50.966;7.094;2023-04-15T10:16:24;1.73;;;1.63;;
11988;SDS011;6054;50.966;7.094;2023-04-15T10:18:54;2.00;;;1.90;;
11988;SDS011;6054;50.966;7.094;2023-04-15T10:21:22;3.20;;;2.20;;
11988;SDS011;6054;50.966;7.094;2023-04-15T10:23:49;2.20;;;2.00;;
11988;SDS011;6054;50.966;7.094;2023-04-15T10:26:17;2.30;;;2.20;;
11988;SDS011;6054;50.966;7.094;2023-04-15T10:28:43;2.63;;;2.35;;
11988;SDS011;6054;50.966;7.094;2023-04-15T10:31:12;2.50;;;2.30;;
11988;SDS011;6054;50.966;7.094;2023-04-15T10:33:41;3.50;;;2.17;;
11988;SDS011;6054;50.966;7.094;2023-04-15T10:36:09;2.70;;;2.50;;
11988;SDS011;6054;50.966;7.094;2023-04-15T10:38:37;2.85;;;2.50;;
11988;SDS011;6054;50.966;7.094;2023-04-15T10:41:12;2.42;;;2.33;;
11988;SDS011;6054;50.966;7.094;2023-04-15T10:43:44;6.22;;;2.75;;
11988;SDS011;6054;50.966;7.094;2023-04-15T10:46:13;2.53;;;2.30;;
11988;SDS011;6054;50.966;7.094;2023-04-15T10:48:49;2.42;;;2.30;;
11988;SDS011;6054;50.966;7.094;2023-04-15T10:51:25;2.05;;;1.95;;
11988;SDS011;6054;50.966;7.094;2023-04-15T10:53:57;2.75;;;2.47;;
11988;SDS011;6054;50.966;7.094;2023-04-15T10:56:25;2.30;;;2.20;;
11988;SDS011;6054;50.966;7.094;2023-04-15T10:58:54;2.35;;;2.25;;
11988;SDS011;6054;50.966;7.094;2023-04-15T11:01:26;2.25;;;2.15;;
11988;SDS011;6054;50.966;7.094;2023-04-15T11:07:37;3.38;;;2.33;;
11988;SDS011;6054;50.966;7.094;2023-04-15T11:13:16;2.47;;;2.28;;
11988;SDS011;6054;50.966;7.094;2023-04-15T11:15:46;4.43;;;1.98;;
11988;SDS011;6054;50.966;7.094;2023-04-15T11:18:14;2.55;;;2.38;;
11988;SDS011;6054;50.966;7.094;2023-04-15T11:20:44;2.40;;;2.20;;
11988;SDS011;6054;50.966;7.094;2023-04-15T11:23:12;2.13;;;2.03;;
11988;SDS011;6054;50.966;7.094;2023-04-15T11:25:41;2.10;;;1.83;;
11988;SDS011;6054;50.966;7.094;2023-04-15T11:28:08;1.95;;;1.85;;
11988;SDS011;6054;50.966;7.094;2023-04-15T11:30:36;2.08;;;1.98;;
11988;SDS011;6054;50.966;7.094;2023-04-15T11:33:05;2.17;;;2.08;;
11988;SDS011;6054;50.966;7.094;2023-04-15T11:35:33;2.25;;;1.88;;
11988;SDS011;6054;50.966;7.094;2023-04-15T11:38:02;2.50;;;2.00;;
11988;SDS011;6054;50.966;7.094;2023-04-15T11:40:30;2.22;;;2.13;;
11988;SDS011;6054;50.966;7.094;2023-04-15T11:43:02;2.45;;;2.35;;
11988;SDS011;6054;50.966;7.094;2023-04-15T11:45:33;2.50;;;2.30;;
11988;SDS011;6054;50.966;7.094;2023-04-15T11:48:09;2.28;;;2.17;;
11988;SDS011;6054;50.966;7.094;2023-04-15T11:50:38;1.98;;;1.88;;
11988;SDS011;6054;50.966;7.094;2023-04-15T11:53:08;2.10;;;1.90;;
11988;SDS011;6054;50.966;7.094;2023-04-15T11:55:43;1.95;;;1.85;;
11988;SDS011;6054;50.966;7.094;2023-04-15T11:58:11;2.30;;;2.20;;
11988;SDS011;6054;50.966;7.094;2023-04-15T12:00:40;2.53;;;2.20;;
11988;SDS011;6054;50.966;7.094;2023-04-15T12:03:12;2.17;;;2.08;;
11988;SDS011;6054;50.966;7.094;2023-04-15T12:06:01;2.45;;;2.35;;
11988;SDS011;6054;50.966;7.094;2023-04-15T12:11:30;2.33;;;2.20;;
11988;SDS011;6054;50.966;7.094;2023-04-15T12:14:01;2.63;;;2.10;;
11988;SDS011;6054;50.966;7.094;2023-04-15T12:16:29;2.40;;;2.30;;
11988;SDS011;6054;50.966;7.094;2023-04-15T12:18:58;2.58;;;2.38;;
11988;SDS011;6054;50.966;7.094;2023-04-15T12:21:32;2.30;;;2.20;;
11988;SDS011;6054;50.966;7.094;2023-04-15T12:24:02;2.53;;;2.33;;
11988;SDS011;6054;50.966;7.094;2023-04-15T12:26:30;2.10;;;2.00;;
11988;SDS011;6054;50.966;7.094;2023-04-15T12:29:00;2.40;;;2.30;;
11988;SDS011;6054;50.966;7.094;2023-04-15T12:31:27;2.05;;;1.95;;
11988;SDS011;6054;50.966;7.094;2023-04-15T12:33:54;2.45;;;2.25;;
11988;SDS011;6054;50.966;7.094;2023-04-15T12:36:22;3.15;;;2.58;;
11988;SDS011;6054;50.966;7.094;2023-04-15T12:38:49;2.58;;;2.28;;
11988;SDS011;6054;50.966;7.094;2023-04-15T12:41:17;2.17;;;2.08;;
11988;SDS011;6054;50.966;7.094;2023-04-15T12:43:45;2.60;;;2.40;;
11988;SDS011;6054;50.966;7.094;2023-04-15T12:46:12;2.33;;;2.22;;
11988;SDS011;6054;50.966;7.094;2023-04-15T12:48:39;2.70;;;2.50;;
11988;SDS011;6054;50.966;7.094;2023-04-15T12:51:06;2.03;;;1.92;;
11988;SDS011;6054;50.966;7.094;2023-04-15T12:53:33;4.72;;;3.13;;
11988;SDS011;6054;50.966;7.094;2023-04-15T12:56:00;2.28;;;2.17;;
11988;SDS011;6054;50.966;7.094;2023-04-15T12:58:28;2.53;;;2.42;;
11988;SDS011;6054;50.966;7.094;2023-04-15T13:00:54;3.00;;;2.63;;
11988;SDS011;6054;50.966;7.094;2023-04-15T13:03:22;2.70;;;2.50;;
11988;SDS011;6054;50.966;7.094;2023-04-15T13:05:49;3.28;;;3.08;;
11988;SDS011;6054;50.966;7.094;2023-04-15T13:08:16;3.13;;;2.92;;
11988;SDS011;6054;50.966;7.094;2023-04-15T13:10:43;3.20;;;2.90;;
11988;SDS011;6054;50.966;7.094;2023-04-15T13:13:10;3.50;;;3.22;;
11988;SDS011;6054;50.966;7.094;2023-04-15T13:15:38;3.80;;;3.53;;
11988;SDS011;6054;50.966;7.094;2023-04-15T13:18:05;3.60;;;3.30;;
11988;SDS011;6054;50.966;7.094;2023-04-15T13:20:32;3.45;;;3.20;;
11988;SDS011;6054;50.966;7.094;2023-04-15T13:22:59;3.60;;;3.28;;
11988;SDS011;6054;50.966;7.094;2023-04-15T13:25:26;3.58;;;3.33;;
11988;SDS011;6054;50.966;7.094;2023-04-15T13:27:53;4.30;;;4.00;;
11988;SDS011;6054;50.966;7.094;2023-04-15T13:30:19;4.82;;;4.35;;
11988;SDS011;6054;50.966;7.094;2023-04-15T13:32:47;4.85;;;4.30;;
11988;SDS011;6054;50.966;7.094;2023-04-15T13:35:15;4.47;;;4.07;;
11988;SDS011;6054;50.966;7.094;2023-04-15T13:37:41;5.60;;;5.10;;
11988;SDS011;6054;50.966;7.094;2023-04-15T13:40:08;4.80;;;4.50;;
11988;SDS011;6054;50.966;7.094;2023-04-15T13:42:36;5.20;;;4.80;;
11988;SDS011;6054;50.966;7.094;2023-04-15T13:45:03;4.90;;;4.60;;
11988;SDS011;6054;50.966;7.094;2023-04-15T13:47:30;4.45;;;4.15;;
11988;SDS011;6054;50.966;7.094;2023-04-15T13:49:58;5.40;;;4.90;;
11988;SDS011;6054;50.966;7.094;2023-04-15T13:52:25;5.97;;;5.47;;
11988;SDS011;6054;50.966;7.094;2023-04-15T13:54:51;5.63;;;5.22;;
11988;SDS011;6054;50.966;7.094;2023-04-15T13:57:18;5.22;;;4.88;;
11988;SDS011;6054;50.966;7.094;2023-04-15T13:59:45;5.63;;;5.20;;
11988;SDS011;6054;50.966;7.094;2023-04-15T14:02:12;6.82;;;6.22;;
11988;SDS011;6054;50.966;7.094;2023-04-15T14:04:38;5.85;;;5.45;;
11988;SDS011;6054;50.966;7.094;2023-04-15T14:07:06;6.65;;;6.03;;
11988;SDS011;6054;50.966;7.094;2023-04-15T14:09:33;7.25;;;6.55;;
11988;SDS011;6054;50.966;7.094;2023-04-15T14:12:00;6.63;;;5.82;;
11988;SDS011;6054;50.966;7.094;2023-04-15T14:14:27;6.68;;;6.10;;
11988;SDS011;6054;50.966;7.094;2023-04-15T14:16:54;6.90;;;6.20;;
11988;SDS011;6054;50.966;7.094;2023-04-15T14:19:21;6.65;;;6.10;;
11988;SDS011;6054;50.966;7.094;2023-04-15T14:21:48;6.68;;;6.07;;
11988;SDS011;6054;50.966;7.094;2023-04-15T14:24:16;6.32;;;5.72;;
11988;SDS011;6054;50.966;7.094;2023-04-15T14:26:43;6.60;;;6.10;;
11988;SDS011;6054;50.966;7.094;2023-04-15T14:29:10;6.25;;;5.75;;
11988;SDS011;6054;50.966;7.094;2023-04-15T14:31:37;7.07;;;6.38;;
11988;SDS011;6054;50.966;7.094;2023-04-15T14:34:04;5.80;;;5.40;;
11988;SDS011;6054;50.966;7.094;2023-04-15T14:36:30;5.90;;;5.50;;
11988;SDS011;6054;50.966;7.094;2023-04-15T14:38:58;5.88;;;5.47;;
11988;SDS011;6054;50.966;7.094;2023-04-15T14:41:26;5.80;;;5.22;;
11988;SDS011;6054;50.966;7.094;2023-04-15T14:43:52;5.57;;;5.18;;
11988;SDS011;6054;50.966;7.094;2023-04-15T14:46:20;5.18;;;4.78;;
11988;SDS011;6054;50.966;7.094;2023-04-15T14:48:47;5.47;;;5.05;;
11988;SDS011;6054;50.966;7.094;2023-04-15T14:51:14;4.20;;;3.80;;
11988;SDS011;6054;50.966;7.094;2023-04-15T14:53:41;4.63;;;4.22;;
11988;SDS011;6054;50.966;7.094;2023-04-15T14:56:08;3.65;;;3.40;;
11988;SDS011;6054;50.966;7.094;2023-04-15T14:58:36;3.90;;;3.60;;
11988;SDS011;6054;50.966;7.094;2023-04-15T15:01:03;3.83;;;3.53;;
11988;SDS011;6054;50.966;7.094;2023-04-15T15:03:30;4.05;;;3.75;;
11988;SDS011;6054;50.966;7.094;2023-04-15T15:05:57;4.50;;;3.78;;
11988;SDS011;6054;50.966;7.094;2023-04-15T15:08:24;3.90;;;3.42;;
11988;SDS011;6054;50.966;7.094;2023-04-15T15:10:51;4.53;;;3.53;;
11988;SDS011;6054;50.966;7.094;2023-04-15T15:13:18;4.18;;;3.78;;
11988;SDS011;6054;50.966;7.094;2023-04-15T15:15:46;5.30;;;3.53;;